createdAt,value
2024-02-04T00:01:14.354Z,6.48
2024-02-04T00:03:59.430Z,6.41
2024-02-04T00:06:28.300Z,6.37
2024-02-04T00:08:57.559Z,6.35
2024-02-04T00:11:44.734Z,6.35
2024-02-04T00:14:15.313Z,6.36
2024-02-04T00:16:44.539Z,6.36
2024-02-04T00:19:15.660Z,6.36
2024-02-04T00:21:44.693Z,6.35
2024-02-04T00:24:13.756Z,6.34
2024-02-04T00:26:44.773Z,6.32
2024-02-04T00:29:14.436Z,6.32
2024-02-04T00:31:46.879Z,6.30
2024-02-04T00:34:15.774Z,6.29
2024-02-04T00:36:44.985Z,6.28
2024-02-04T00:39:13.512Z,6.27
2024-02-04T00:41:42.066Z,6.24
2024-02-04T00:44:10.710Z,6.22
2024-02-04T00:46:41.625Z,6.18
2024-02-04T00:49:10.159Z,6.14
2024-02-04T00:51:38.855Z,6.10
2024-02-04T00:54:07.541Z,6.04
2024-02-04T00:56:36.284Z,5.97
2024-02-04T00:59:05.833Z,5.91
2024-02-04T01:01:35.062Z,5.86
2024-02-04T01:04:04.631Z,5.81
2024-02-04T01:06:43.176Z,5.75
2024-02-04T01:09:20.033Z,5.71
2024-02-04T01:12:28.245Z,5.67
2024-02-04T01:14:57.557Z,5.62
2024-02-04T01:17:26.663Z,5.56
2024-02-04T01:19:55.849Z,5.51
2024-02-04T01:22:27.733Z,5.47
2024-02-04T01:24:57.401Z,5.45
2024-02-04T01:27:26.952Z,5.42
2024-02-04T01:29:55.556Z,5.39
2024-02-04T01:32:24.217Z,5.35
2024-02-04T01:34:53.182Z,5.32
2024-02-04T01:37:22.418Z,5.29
2024-02-04T01:39:51.160Z,5.24
2024-02-04T01:42:19.672Z,5.21
2024-02-04T01:44:48.270Z,5.18
2024-02-04T01:47:17.057Z,5.16
2024-02-04T01:49:46.614Z,5.13
2024-02-04T01:52:15.231Z,5.10
2024-02-04T01:54:45.223Z,5.10
2024-02-04T01:57:13.986Z,5.08
2024-02-04T01:59:42.605Z,5.05
2024-02-04T02:02:11.330Z,5.02
2024-02-04T02:04:41.658Z,5.01
2024-02-04T02:07:11.106Z,4.99
2024-02-04T02:09:40.635Z,4.98
2024-02-04T02:12:15.829Z,4.96
2024-02-04T02:14:51.727Z,4.94
2024-02-04T02:17:30.708Z,4.91
2024-02-04T02:20:07.371Z,4.87
2024-02-04T02:23:02.828Z,4.85
2024-02-04T02:25:32.678Z,4.87
2024-02-04T02:28:01.340Z,4.90
2024-02-04T02:30:30.106Z,4.91
2024-02-04T02:32:59.626Z,4.89
2024-02-04T02:35:28.412Z,4.88
2024-02-04T02:38:12.320Z,4.88
2024-02-04T02:40:48.810Z,4.91
2024-02-04T02:43:17.772Z,4.92
2024-02-04T02:45:46.974Z,4.93
2024-02-04T02:48:17.334Z,4.92
2024-02-04T02:50:45.950Z,4.88
2024-02-04T02:53:14.590Z,4.84
2024-02-04T02:55:43.180Z,4.78
2024-02-04T02:58:11.776Z,4.75
2024-02-04T03:00:40.946Z,4.72
2024-02-04T03:03:09.509Z,4.69
2024-02-04T03:05:38.784Z,4.66
2024-02-04T03:08:07.637Z,4.66
2024-02-04T03:10:36.268Z,4.66
2024-02-04T03:13:07.958Z,4.66
2024-02-04T03:15:36.803Z,4.66
2024-02-04T03:18:06.383Z,4.67
2024-02-04T03:20:37.270Z,4.71
2024-02-04T03:23:06.874Z,4.75
2024-02-04T03:25:35.492Z,4.78
2024-02-04T03:28:05.263Z,4.82
2024-02-04T03:30:35.616Z,4.84
2024-02-04T03:33:05.307Z,4.86
2024-02-04T03:35:39.023Z,4.87
2024-02-04T03:38:09.518Z,4.88
2024-02-04T03:40:37.957Z,4.93
2024-02-04T03:43:06.813Z,4.96
2024-02-04T03:45:38.195Z,4.98
2024-02-04T03:48:09.316Z,5.01
2024-02-04T03:50:38.263Z,5.03
2024-02-04T03:53:07.144Z,5.05
2024-02-04T03:55:36.330Z,5.06
2024-02-04T03:58:05.231Z,5.06
2024-02-04T04:00:34.596Z,5.08
2024-02-04T04:03:03.501Z,5.07
2024-02-04T04:05:32.008Z,5.08
2024-02-04T04:08:01.267Z,5.09
2024-02-04T04:10:30.382Z,5.10
2024-02-04T04:13:59.855Z,5.10
2024-02-04T04:16:28.591Z,5.08
2024-02-04T04:18:57.721Z,5.07
2024-02-04T04:21:27.119Z,5.05
2024-02-04T04:23:55.893Z,5.05
2024-02-04T04:26:25.981Z,5.03
2024-02-04T04:28:54.511Z,5.02
2024-02-04T04:31:23.097Z,5.00
2024-02-04T04:33:54.123Z,4.99
2024-02-04T04:36:22.916Z,4.95
2024-02-04T04:38:51.980Z,4.91
2024-02-04T04:41:20.398Z,4.86
2024-02-04T04:43:48.939Z,4.82
2024-02-04T04:46:17.575Z,4.78
2024-02-04T04:48:46.335Z,4.75
2024-02-04T04:51:14.897Z,4.71
2024-02-04T04:53:43.632Z,4.67
2024-02-04T04:56:12.851Z,4.64
2024-02-04T04:58:41.360Z,4.58
2024-02-04T05:01:10.064Z,4.54
2024-02-04T05:03:38.744Z,4.50
2024-02-04T05:06:08.118Z,4.48
2024-02-04T05:08:37.161Z,4.46
2024-02-04T05:11:05.756Z,4.44
2024-02-04T05:14:00.942Z,4.41
2024-02-04T05:16:30.237Z,4.35
2024-02-04T05:18:58.863Z,4.28
2024-02-04T05:21:27.672Z,4.21
2024-02-04T05:23:56.306Z,4.16
2024-02-04T05:26:25.407Z,4.11
2024-02-04T05:28:53.998Z,4.08
2024-02-04T05:31:22.469Z,4.06
2024-02-04T05:33:53.539Z,4.06
2024-02-04T05:36:22.061Z,4.06
2024-02-04T05:38:50.541Z,4.06
2024-02-04T05:41:19.658Z,4.09
2024-02-04T05:43:48.166Z,4.13
2024-02-04T05:46:17.513Z,4.16
2024-02-04T05:48:46.663Z,4.20
2024-02-04T05:51:15.639Z,4.23
2024-02-04T05:53:44.082Z,4.26
2024-02-04T05:56:13.304Z,4.26
2024-02-04T05:58:41.770Z,4.23
2024-02-04T06:01:10.239Z,4.20
2024-02-04T06:03:39.108Z,4.20
2024-02-04T06:06:07.968Z,4.22
2024-02-04T06:08:36.663Z,4.24
2024-02-04T06:11:05.477Z,4.23
2024-02-04T06:14:12.514Z,4.22
2024-02-04T06:16:41.132Z,4.21
2024-02-04T06:19:10.919Z,4.21
2024-02-04T06:21:39.557Z,4.20
2024-02-04T06:24:08.952Z,4.18
2024-02-04T06:26:41.202Z,4.18
2024-02-04T06:29:09.703Z,4.18
2024-02-04T06:31:38.168Z,4.19
2024-02-04T06:34:06.815Z,4.18
2024-02-04T06:36:35.423Z,4.16
2024-02-04T06:39:04.825Z,4.14
2024-02-04T06:41:36.039Z,4.13
2024-02-04T06:44:06.189Z,4.12
2024-02-04T06:46:34.966Z,4.13
2024-02-04T06:49:03.756Z,4.15
2024-02-04T06:51:32.397Z,4.18
2024-02-04T06:54:02.342Z,4.21
2024-02-04T06:56:30.969Z,4.23
2024-02-04T06:58:59.510Z,4.26
2024-02-04T07:01:29.003Z,4.31
2024-02-04T07:03:57.813Z,4.36
2024-02-04T07:06:27.172Z,4.41
2024-02-04T07:08:55.578Z,4.46
2024-02-04T07:11:25.763Z,4.51
2024-02-04T07:14:00.278Z,4.55
2024-02-04T07:16:29.591Z,4.61
2024-02-04T07:18:58.305Z,4.66
2024-02-04T07:21:27.057Z,4.70
2024-02-04T07:23:55.682Z,4.74
2024-02-04T07:26:24.312Z,4.78
2024-02-04T07:28:53.051Z,4.83
2024-02-04T07:31:23.359Z,4.86
2024-02-04T07:33:52.359Z,4.89
2024-02-04T07:36:20.896Z,4.92
2024-02-04T07:38:49.972Z,4.94
2024-02-04T07:41:28.618Z,4.97
2024-02-04T07:43:57.285Z,4.98
2024-02-04T07:46:33.344Z,5.00
2024-02-04T07:49:02.091Z,5.03
2024-02-04T07:52:11.800Z,5.06
2024-02-04T07:54:41.079Z,5.09
2024-02-04T07:57:12.649Z,5.11
2024-02-04T07:59:41.239Z,5.14
2024-02-04T08:02:10.363Z,5.16
2024-02-04T08:04:43.136Z,5.20
2024-02-04T08:07:12.394Z,5.22
2024-02-04T08:09:44.586Z,5.26
2024-02-04T08:12:17.582Z,5.30
2024-02-04T08:14:46.680Z,5.37
2024-02-04T08:17:16.817Z,5.43
2024-02-04T08:19:46.435Z,5.47
2024-02-04T08:22:15.423Z,5.52
2024-02-04T08:24:44.736Z,5.56
2024-02-04T08:27:19.418Z,5.60
2024-02-04T08:29:47.977Z,5.65
2024-02-04T08:32:39.462Z,5.68
2024-02-04T08:35:09.591Z,5.66
2024-02-04T08:37:39.340Z,5.68
2024-02-04T08:40:11.756Z,5.69
2024-02-04T08:42:48.617Z,5.70
2024-02-04T08:45:18.182Z,5.69
2024-02-04T08:47:47.480Z,5.70
2024-02-04T08:50:17.465Z,5.75
2024-02-04T08:52:46.082Z,5.80
2024-02-04T08:55:15.184Z,5.85
2024-02-04T08:57:44.464Z,5.91
2024-02-04T09:00:13.987Z,5.99
2024-02-04T09:02:42.710Z,6.08
2024-02-04T09:05:11.312Z,6.25
2024-02-04T09:07:41.633Z,6.40
2024-02-04T09:10:10.617Z,6.46
2024-02-04T09:13:04.461Z,6.46
2024-02-04T09:15:33.993Z,6.50
2024-02-04T09:18:02.997Z,6.47
2024-02-04T09:20:31.876Z,6.51
2024-02-04T09:23:01.171Z,6.61
2024-02-04T09:25:32.373Z,6.73
2024-02-04T09:28:01.843Z,6.91
2024-02-04T09:30:31.215Z,7.11
2024-02-04T09:33:00.288Z,7.27
2024-02-04T09:35:29.555Z,7.37
2024-02-04T09:37:59.247Z,7.40
2024-02-04T09:40:31.247Z,7.39
2024-02-04T09:43:04.032Z,7.43
2024-02-04T09:45:34.266Z,7.36
2024-02-04T09:48:04.295Z,7.22
2024-02-04T09:50:34.162Z,7.10
2024-02-04T09:53:07.826Z,7.01
2024-02-04T09:55:36.842Z,6.93
2024-02-04T09:58:07.120Z,6.88
2024-02-04T10:00:40.293Z,6.82
2024-02-04T10:03:10.701Z,6.76
2024-02-04T10:05:41.093Z,6.77
2024-02-04T10:08:10.234Z,6.82
2024-02-04T10:10:38.960Z,6.86
2024-02-04T10:13:43.960Z,6.91
2024-02-04T10:16:13.987Z,6.98
2024-02-04T10:18:47.846Z,7.01
2024-02-04T10:21:18.706Z,7.00
2024-02-04T10:23:48.372Z,7.01
2024-02-04T10:26:18.096Z,7.04
2024-02-04T10:28:48.241Z,7.08
2024-02-04T10:31:17.342Z,7.12
2024-02-04T10:33:46.815Z,7.17
2024-02-04T10:36:16.669Z,7.19
2024-02-04T10:38:47.703Z,7.12
2024-02-04T10:41:17.898Z,7.03
2024-02-04T10:43:47.032Z,6.96
2024-02-04T10:46:21.115Z,6.93
2024-02-04T10:48:57.707Z,6.94
2024-02-04T10:51:28.944Z,6.94
2024-02-04T10:54:02.794Z,6.89
2024-02-04T10:56:48.120Z,6.84
2024-02-04T10:59:23.669Z,6.84
2024-02-04T11:01:53.283Z,6.83
2024-02-04T11:04:24.827Z,6.84
2024-02-04T11:06:55.471Z,6.87
2024-02-04T11:09:26.116Z,6.93
2024-02-04T11:12:02.115Z,7.00
2024-02-04T11:14:32.710Z,7.04
2024-02-04T11:17:59.835Z,7.07
2024-02-04T11:21:05.784Z,7.24
2024-02-04T11:24:20.890Z,7.37
2024-02-04T11:26:50.565Z,7.41
2024-02-04T11:29:20.084Z,7.37
2024-02-04T11:31:49.934Z,7.31
2024-02-04T11:34:19.122Z,7.28
2024-02-04T11:36:48.670Z,7.27
2024-02-04T11:39:24.071Z,7.27
2024-02-04T11:41:53.257Z,7.21
2024-02-04T11:44:25.992Z,7.22
2024-02-04T11:46:57.153Z,7.25
2024-02-04T11:49:28.836Z,7.28
2024-02-04T11:51:57.870Z,7.27
2024-02-04T11:54:27.482Z,7.31
2024-02-04T11:56:57.924Z,7.39
2024-02-04T11:59:28.043Z,7.47
2024-02-04T12:01:59.493Z,7.48
2024-02-04T12:04:33.681Z,7.48
2024-02-04T12:07:04.113Z,7.47
2024-02-04T12:09:33.596Z,7.40
2024-02-04T12:12:24.552Z,7.33
2024-02-04T12:14:54.514Z,7.29
2024-02-04T12:17:23.888Z,7.26
2024-02-04T12:19:52.649Z,7.24
2024-02-04T12:22:22.101Z,7.17
2024-02-04T12:24:51.109Z,7.11
2024-02-04T12:27:19.697Z,7.07
2024-02-04T12:29:53.848Z,7.04
2024-02-04T12:32:22.498Z,7.03
2024-02-04T12:34:58.222Z,7.02
2024-02-04T12:37:28.272Z,7.00
2024-02-04T12:39:58.188Z,6.96
2024-02-04T12:42:27.443Z,6.94
2024-02-04T12:44:59.706Z,6.92
2024-02-04T12:47:30.150Z,6.93
2024-02-04T12:50:04.010Z,6.95
2024-02-04T12:52:36.690Z,6.98
2024-02-04T12:55:06.022Z,7.00
2024-02-04T12:57:34.759Z,7.04
2024-02-04T13:00:10.423Z,7.06
2024-02-04T13:02:40.399Z,7.07
2024-02-04T13:05:09.331Z,7.05
2024-02-04T13:07:38.309Z,7.03
2024-02-04T13:10:07.910Z,7.00
2024-02-04T13:12:40.890Z,6.98
2024-02-04T13:15:10.058Z,6.95
2024-02-04T13:17:39.326Z,6.94
2024-02-04T13:20:11.437Z,6.92
2024-02-04T13:22:40.089Z,6.89
2024-02-04T13:25:08.992Z,6.87
2024-02-04T13:27:38.433Z,6.85
2024-02-04T13:30:13.580Z,6.84
2024-02-04T13:32:43.611Z,6.82
2024-02-04T13:35:19.068Z,6.81
2024-02-04T13:37:52.492Z,6.81
2024-02-04T13:40:22.591Z,6.81
2024-02-04T13:42:51.729Z,6.82
2024-02-04T13:45:21.394Z,6.82
2024-02-04T13:47:50.252Z,6.81
2024-02-04T13:50:19.207Z,6.81
2024-02-04T13:52:47.957Z,6.79
2024-02-04T13:55:17.811Z,6.78
2024-02-04T13:57:47.116Z,6.76
2024-02-04T14:00:16.500Z,6.74
2024-02-04T14:02:45.342Z,6.73
2024-02-04T14:05:14.408Z,6.71
2024-02-04T14:07:43.072Z,6.70
2024-02-04T14:10:13.472Z,6.70
2024-02-04T14:12:47.038Z,6.68
2024-02-04T14:15:16.015Z,6.68
2024-02-04T14:17:45.534Z,6.67
2024-02-04T14:20:15.573Z,6.65
2024-02-04T14:22:44.585Z,6.64
2024-02-04T14:25:13.419Z,6.63
2024-02-04T14:27:44.850Z,6.62
2024-02-04T14:30:14.153Z,6.61
2024-02-04T14:32:43.595Z,6.60
2024-02-04T14:35:12.469Z,6.61
2024-02-04T14:37:41.257Z,6.61
2024-02-04T14:40:10.529Z,6.60
2024-02-04T14:42:42.660Z,6.60
2024-02-04T14:45:12.605Z,6.59
2024-02-04T14:47:42.363Z,6.60
2024-02-04T14:50:12.408Z,6.59
2024-02-04T14:52:41.065Z,6.58
2024-02-04T14:55:11.672Z,6.57
2024-02-04T14:57:40.489Z,6.56
2024-02-04T15:00:11.844Z,6.54
2024-02-04T15:02:41.129Z,6.53
2024-02-04T15:05:10.653Z,6.53
2024-02-04T15:07:39.592Z,6.53
2024-02-04T15:10:08.864Z,6.52
2024-02-04T15:12:40.393Z,6.49
2024-02-04T15:15:10.059Z,6.49
2024-02-04T15:17:40.059Z,6.49
2024-02-04T15:20:11.545Z,6.48
2024-02-04T15:22:44.417Z,6.46
2024-02-04T15:25:16.759Z,6.45
2024-02-04T15:27:47.959Z,6.44
2024-02-04T15:30:20.516Z,6.42
2024-02-04T15:32:49.634Z,6.41
2024-02-04T15:35:25.464Z,6.40
2024-02-04T15:38:00.306Z,6.39
2024-02-04T15:40:49.802Z,6.37
2024-02-04T15:43:19.377Z,6.37
2024-02-04T15:45:50.203Z,6.36
2024-02-04T15:48:40.591Z,6.36
2024-02-04T15:51:14.817Z,6.36
2024-02-04T15:53:46.473Z,6.36
2024-02-04T15:56:22.626Z,6.37
2024-02-04T15:59:10.705Z,6.37
2024-02-04T16:01:42.281Z,6.37
2024-02-04T16:04:32.767Z,6.38
2024-02-04T16:07:01.677Z,6.37
2024-02-04T16:09:33.679Z,6.36
2024-02-04T16:12:16.524Z,6.37
2024-02-04T16:14:48.105Z,6.37
2024-02-04T16:17:19.638Z,6.37
2024-02-04T16:19:54.996Z,6.36
2024-02-04T16:22:25.577Z,6.36
2024-02-04T16:24:54.568Z,6.35
2024-02-04T16:27:23.243Z,6.35
2024-02-04T16:29:52.314Z,6.35
2024-02-04T16:32:22.627Z,6.34
2024-02-04T16:34:52.475Z,6.33
2024-02-04T16:37:21.264Z,6.32
2024-02-04T16:39:50.730Z,6.33
2024-02-04T16:42:20.066Z,6.34
2024-02-04T16:44:52.720Z,6.34
2024-02-04T16:47:21.734Z,6.33
2024-02-04T16:49:50.364Z,6.33
2024-02-04T16:52:19.100Z,6.32
2024-02-04T16:54:48.056Z,6.31
2024-02-04T16:57:16.797Z,6.32
2024-02-04T16:59:48.218Z,6.33
2024-02-04T17:02:24.188Z,6.32
2024-02-04T17:04:54.443Z,6.32
2024-02-04T17:07:26.610Z,6.32
2024-02-04T17:09:56.367Z,6.33
2024-02-04T17:12:28.600Z,6.33
2024-02-04T17:15:00.514Z,6.34
2024-02-04T17:17:35.331Z,6.35
2024-02-04T17:20:17.739Z,6.34
2024-02-04T17:22:49.373Z,6.33
2024-02-04T17:25:23.884Z,6.32
2024-02-04T17:27:54.331Z,6.34
2024-02-04T17:30:23.850Z,6.35
2024-02-04T17:32:58.663Z,6.36
2024-02-04T17:35:31.675Z,6.36
2024-02-04T17:38:05.520Z,6.35
2024-02-04T17:40:54.557Z,6.35
2024-02-04T17:43:24.499Z,6.35
2024-02-04T17:45:53.166Z,6.35
2024-02-04T17:48:22.986Z,6.35
2024-02-04T17:51:03.085Z,6.36
2024-02-04T17:53:36.566Z,6.38
2024-02-04T17:56:05.918Z,6.38
2024-02-04T17:58:36.168Z,6.37
2024-02-04T18:01:05.477Z,6.37
2024-02-04T18:03:39.778Z,6.37
2024-02-04T18:06:10.324Z,6.37
2024-02-04T18:08:41.896Z,6.38
2024-02-04T18:11:26.783Z,6.37
2024-02-04T18:13:57.397Z,6.37
2024-02-04T18:16:26.554Z,6.39
2024-02-04T18:18:56.658Z,6.40
2024-02-04T18:21:31.667Z,6.40
2024-02-04T18:24:02.582Z,6.39
2024-02-04T18:26:33.096Z,6.39
2024-02-04T18:29:03.955Z,6.38
2024-02-04T18:31:37.266Z,6.39
2024-02-04T18:34:11.274Z,6.40
2024-02-04T18:36:40.841Z,6.41
2024-02-04T18:39:11.155Z,6.42
2024-02-04T18:42:01.570Z,6.42
2024-02-04T18:47:32.794Z,6.41
2024-02-04T18:50:03.281Z,6.40
2024-02-04T18:52:32.536Z,6.41
2024-02-04T18:55:01.535Z,6.41
2024-02-04T18:57:30.694Z,6.42
2024-02-04T19:00:01.815Z,6.42
2024-02-04T19:02:32.594Z,6.41
2024-02-04T19:05:06.674Z,6.40
2024-02-04T19:07:57.219Z,6.41
2024-02-04T19:10:28.486Z,6.41
2024-02-04T19:13:39.025Z,6.43
2024-02-04T19:16:29.671Z,6.43
2024-02-04T19:18:59.304Z,6.44
2024-02-04T19:21:30.308Z,6.43
2024-02-04T19:24:02.226Z,6.42
2024-02-04T19:26:35.941Z,6.43
2024-02-04T19:29:06.333Z,6.42
2024-02-04T19:31:42.266Z,6.43
2024-02-04T19:34:13.421Z,6.42
2024-02-04T19:36:51.962Z,6.41
2024-02-04T19:39:22.776Z,6.42
2024-02-04T19:41:52.502Z,6.42
2024-02-04T19:44:22.390Z,6.44
2024-02-04T19:46:51.583Z,6.44
2024-02-04T19:49:29.749Z,6.44
2024-02-04T19:52:02.892Z,6.43
2024-02-04T19:54:32.628Z,6.43
2024-02-04T19:57:05.051Z,6.43
2024-02-04T19:59:34.964Z,6.44
2024-02-04T20:02:06.856Z,6.46
2024-02-04T20:04:38.586Z,6.45
2024-02-04T20:07:11.627Z,6.43
2024-02-04T20:09:42.603Z,6.42
2024-02-04T20:12:37.939Z,6.40
2024-02-04T20:15:09.188Z,6.39
2024-02-04T20:17:39.713Z,6.38
2024-02-04T20:20:09.881Z,6.37
2024-02-04T20:22:38.746Z,6.36
2024-02-04T20:25:08.872Z,6.35
2024-02-04T20:27:38.278Z,6.35
2024-02-04T20:30:08.228Z,6.35
2024-02-04T20:32:36.903Z,6.36
2024-02-04T20:35:05.657Z,6.35
2024-02-04T20:37:35.819Z,6.36
2024-02-04T20:40:05.775Z,6.35
2024-02-04T20:42:36.134Z,6.35
2024-02-04T20:45:05.702Z,6.34
2024-02-04T20:47:34.664Z,6.33
2024-02-04T20:50:06.242Z,6.32
2024-02-04T20:52:35.159Z,6.33
2024-02-04T20:55:03.806Z,6.33
2024-02-04T20:57:33.073Z,6.31
2024-02-04T21:00:02.475Z,6.32
2024-02-04T21:02:31.964Z,6.31
2024-02-04T21:05:00.613Z,6.29
2024-02-04T21:07:30.310Z,6.30
2024-02-04T21:09:59.010Z,6.28
2024-02-04T21:12:38.621Z,6.28
2024-02-04T21:15:09.911Z,6.28
2024-02-04T21:17:39.755Z,6.30
2024-02-04T21:20:11.297Z,6.29
2024-02-04T21:22:39.766Z,6.28
2024-02-04T21:25:08.486Z,6.27
2024-02-04T21:27:37.067Z,6.27
2024-02-04T21:30:06.924Z,6.26
2024-02-04T21:32:36.194Z,6.23
2024-02-04T21:35:08.851Z,6.23
2024-02-04T21:37:40.077Z,6.23
2024-02-04T21:40:11.147Z,6.21
2024-02-04T21:42:40.861Z,6.20
2024-02-04T21:45:09.721Z,6.18
2024-02-04T21:47:38.600Z,6.17
2024-02-04T21:50:09.933Z,6.15
2024-02-04T21:52:39.426Z,6.13
2024-02-04T21:55:08.762Z,6.12
2024-02-04T21:57:37.706Z,6.11
2024-02-04T22:00:10.232Z,6.12
2024-02-04T22:02:38.817Z,6.13
2024-02-04T22:05:07.910Z,6.13
2024-02-04T22:07:37.222Z,6.14
2024-02-04T22:10:08.968Z,6.14
2024-02-04T22:13:07.895Z,6.14
2024-02-04T22:15:37.685Z,6.13
2024-02-04T22:18:07.359Z,6.12
2024-02-04T22:20:35.835Z,6.12
2024-02-04T22:23:04.341Z,6.11
2024-02-04T22:25:32.864Z,6.10
2024-02-04T22:28:01.294Z,6.10
2024-02-04T22:30:35.340Z,6.09
2024-02-04T22:33:04.218Z,6.08
2024-02-04T22:35:32.616Z,6.07
2024-02-04T22:38:00.991Z,6.06
2024-02-04T22:40:32.721Z,6.06
2024-02-04T22:43:04.506Z,6.05
2024-02-04T22:45:32.922Z,6.05
2024-02-04T22:48:01.357Z,6.05
2024-02-04T22:50:29.887Z,6.06
2024-02-04T22:52:59.105Z,6.07
2024-02-04T22:55:27.777Z,6.07
2024-02-04T22:57:56.133Z,6.07
2024-02-04T23:00:30.631Z,6.06
2024-02-04T23:03:01.650Z,6.04
2024-02-04T23:05:31.103Z,6.02
2024-02-04T23:08:00.451Z,6.00
2024-02-04T23:10:30.761Z,6.00
2024-02-04T23:13:40.857Z,5.99
2024-02-04T23:16:12.543Z,5.95
2024-02-04T23:18:41.361Z,5.94
2024-02-04T23:21:09.644Z,5.94
2024-02-04T23:23:38.309Z,5.93
2024-02-04T23:26:06.628Z,5.90
2024-02-04T23:28:34.965Z,5.87
2024-02-04T23:31:03.622Z,5.83
2024-02-04T23:33:32.753Z,5.80
2024-02-04T23:36:01.179Z,5.76
2024-02-04T23:38:29.531Z,5.75
2024-02-04T23:40:57.940Z,5.72
2024-02-04T23:43:31.531Z,5.70
2024-02-04T23:46:00.174Z,5.69
2024-02-04T23:48:29.977Z,5.66
2024-02-04T23:50:58.516Z,5.67
2024-02-04T23:53:27.382Z,5.64
2024-02-04T23:55:58.446Z,5.63
2024-02-04T23:58:26.801Z,5.59
